weather.gov     
National Weather Service

Terminal Aerodrome Forecast
NWS Homepage
This page is being discontinued on March 12, 2014.
The same data is available at this site. Please update your bookmarks.
Thank you, and we apologize for the inconvenience.
Please send an email to SR-SRH.Webmaster@noaa.gov with any concerns.


Current Version
Previous Version:    01  02  03  04  05  06  07  08  09  10  11  12  13  14  15  16  17  18  19  20  21  22  23  24  25  
[Printable]
817
FTUS46 KPDT 182300
TAFPSC
TAF
KPSC 182320Z 1900/1924 24012G20KT P6SM FEW080 BKN200
     FM190400 VRB04KT P6SM SCT150 BKN180
     FM191200 VRB03KT P6SM BKN130
     FM191800 26016G24KT P6SM SCT110 BKN120
     FM192100 27018G28KT P6SM SCT090 BKN110=


U.S. Dept. of Commerce
NOAA National Weather Service
1325 East West Highway
Silver Spring, MD 20910
E-mail: w-nws.webmaster@noaa.gov
Page last modified: May 16, 2007
NATIONAL WEATHER SERVICE: for Safety, for Work, for Fun - FOR LIFE